Time;durP1;ratioP1;P1;durP2;ratioP2;P2;SDS_P1;SDS_P2;PMS_P1;PMS_P2;Temp;Humidity;BMP_temperature;BMP_pressure;BME280_temperature;BME280_humidity;BME280_pressure;Samples;Min_cycle;Max_cycle;Signal;HPM_P1;HPM_P2
2023/12/17 00:01:54;;;;;;;11.13;7.32;;;;;;;-1.19;100.00;99562.69;5042755;28;20120;-63
2023/12/17 00:04:20;;;;;;;12.93;7.68;;;;;;;-1.27;100.00;99551.81;5045692;28;20044;-62
2023/12/17 00:06:47;;;;;;;13.23;7.13;;;;;;;-1.30;100.00;99544.09;5051074;28;20659;-62
2023/12/17 00:09:14;;;;;;;10.02;6.82;;;;;;;-1.33;100.00;99531.06;5046223;28;20041;-62
2023/12/17 00:11:41;;;;;;;13.50;7.68;;;;;;;-1.33;100.00;99541.69;5051440;28;20055;-62
2023/12/17 00:14:12;;;;;;;13.73;6.93;;;;;;;-1.32;100.00;99543.38;5042710;28;20512;-62
2023/12/17 00:16:39;;;;;;;15.07;7.95;;;;;;;-1.32;100.00;99556.66;5050690;28;20045;-63
2023/12/17 00:19:05;;;;;;;12.18;6.68;;;;;;;-1.27;100.00;99564.25;5050792;28;20032;-63
2023/12/17 00:21:32;;;;;;;12.80;7.50;;;;;;;-1.23;100.00;99566.56;5055069;28;20040;-63
2023/12/17 00:23:59;;;;;;;10.90;6.95;;;;;;;-1.16;100.00;99568.72;5042114;28;20048;-63
2023/12/17 00:26:26;;;;;;;13.13;6.38;;;;;;;-1.09;100.00;99576.09;5060017;28;20641;-63
2023/12/17 00:28:52;;;;;;;12.93;7.75;;;;;;;-1.06;100.00;99569.69;5043941;28;20106;-63
2023/12/17 00:31:19;;;;;;;12.80;6.97;;;;;;;-1.10;100.00;99563.75;5051903;28;20056;-63
2023/12/17 00:33:46;;;;;;;19.52;7.90;;;;;;;-1.10;100.00;99563.75;5041376;28;20547;-63
2023/12/17 00:36:13;;;;;;;11.43;6.82;;;;;;;-1.10;100.00;99558.44;5041512;28;20099;-63
2023/12/17 00:38:40;;;;;;;14.82;7.32;;;;;;;-1.07;100.00;99552.06;5040474;28;20037;-63
2023/12/17 00:41:07;;;;;;;12.02;6.90;;;;;;;-1.08;100.00;99551.19;5044036;28;20124;-63
2023/12/17 00:43:35;;;;;;;16.60;8.07;;;;;;;-1.07;100.00;99563.53;5044685;28;20044;-62
2023/12/17 00:46:01;;;;;;;15.45;7.60;;;;;;;-1.00;100.00;99563.88;5044089;28;20045;-63
2023/12/17 00:48:28;;;;;;;23.95;8.00;;;;;;;-0.88;100.00;99551.44;5043509;28;20528;-63
2023/12/17 00:50:55;;;;;;;14.27;7.00;;;;;;;-0.84;100.00;99563.50;5042110;28;20398;-63
2023/12/17 00:53:22;;;;;;;15.70;7.80;;;;;;;-0.79;100.00;99552.47;5048427;28;20055;-63
2023/12/17 00:55:48;;;;;;;11.05;6.38;;;;;;;-0.80;100.00;99554.28;5042691;28;20049;-64
2023/12/17 00:58:15;;;;;;;8.57;5.32;;;;;;;-0.77;100.00;99549.69;5041762;28;20040;-63
2023/12/17 01:00:41;;;;;;;12.50;5.97;;;;;;;-0.69;100.00;99531.28;5047853;28;20048;-63
2023/12/17 01:03:20;;;;;;;12.13;6.65;;;;;;;-0.75;100.00;99537.97;5041809;28;20041;-64
2023/12/17 01:05:47;;;;;;;10.82;5.78;;;;;;;-0.83;100.00;99543.06;5042675;28;20041;-64
2023/12/17 01:08:13;;;;;;;13.30;6.60;;;;;;;-0.91;100.00;99543.69;5043668;28;20138;-64
2023/12/17 01:10:40;;;;;;;7.75;5.45;;;;;;;-0.94;100.00;99541.25;5042655;28;20037;-64
2023/12/17 01:13:06;;;;;;;8.18;5.45;;;;;;;-1.02;100.00;99549.00;5045716;28;20041;-64
2023/12/17 01:15:33;;;;;;;11.27;5.85;;;;;;;-1.11;100.00;99550.63;5053757;28;20064;-64
2023/12/17 01:18:00;;;;;;;11.85;5.15;;;;;;;-1.16;100.00;99545.66;5039319;28;20033;-64
2023/12/17 01:20:27;;;;;;;8.68;5.32;;;;;;;-1.27;100.00;99546.50;5047001;28;20468;-64
2023/12/17 01:22:53;;;;;;;9.13;5.15;;;;;;;-1.16;100.00;99550.09;5054567;28;20056;-64
2023/12/17 01:25:20;;;;;;;8.85;5.88;;;;;;;-1.19;100.00;99560.03;5047798;28;20055;-64
2023/12/17 01:27:46;;;;;;;11.18;5.97;;;;;;;-1.27;100.00;99566.91;5046695;28;20043;-63
2023/12/17 01:30:13;;;;;;;11.75;6.13;;;;;;;-1.24;100.00;99572.00;5052915;28;20029;-63
2023/12/17 01:32:40;;;;;;;9.93;5.43;;;;;;;-1.21;100.00;99569.09;5045667;28;20047;-63
2023/12/17 01:35:08;;;;;;;12.20;5.85;;;;;;;-1.16;100.00;99558.09;5046559;28;20041;-63
2023/12/17 01:37:35;;;;;;;10.63;6.55;;;;;;;-1.22;100.00;99554.94;5044213;28;20037;-63
2023/12/17 01:40:02;;;;;;;9.52;6.05;;;;;;;-1.15;100.00;99557.97;5053743;28;20499;-63
2023/12/17 01:42:28;;;;;;;13.50;6.20;;;;;;;-1.10;100.00;99552.28;5054198;28;20047;-63
2023/12/17 01:44:55;;;;;;;11.32;5.70;;;;;;;-1.14;100.00;99557.00;5048583;28;20132;-64
2023/12/17 01:47:22;;;;;;;10.18;6.00;;;;;;;-1.20;100.00;99555.69;5046231;28;20082;-64
2023/12/17 01:49:49;;;;;;;10.68;5.50;;;;;;;-1.24;100.00;99553.38;5046144;28;20060;-64
2023/12/17 01:52:17;;;;;;;9.32;5.32;;;;;;;-1.27;100.00;99559.78;5044762;28;20492;-63
2023/12/17 01:54:44;;;;;;;9.13;5.38;;;;;;;-1.23;100.00;99565.69;5045115;28;20057;-63
2023/12/17 01:57:12;;;;;;;10.57;6.32;;;;;;;-1.25;100.00;99562.34;5054010;28;20047;-64
2023/12/17 01:59:39;;;;;;;12.93;5.72;;;;;;;-1.25;100.00;99565.00;5045242;28;20493;-63
2023/12/17 02:02:05;;;;;;;9.57;5.95;;;;;;;-1.20;100.00;99557.50;5045495;28;20065;-63
2023/12/17 02:04:32;;;;;;;11.88;6.70;;;;;;;-1.35;100.00;99551.56;5045396;28;20049;-63
2023/12/17 02:06:59;;;;;;;9.40;5.57;;;;;;;-1.43;100.00;99557.50;5046128;28;20071;-64
2023/12/17 02:09:26;;;;;;;8.90;5.95;;;;;;;-1.49;100.00;99556.16;5045996;28;20033;-64
2023/12/17 02:11:52;;;;;;;9.80;5.32;;;;;;;-1.48;100.00;99565.81;5043425;28;20114;-63
2023/12/17 02:14:19;;;;;;;10.93;6.30;;;;;;;-1.43;100.00;99562.81;5046176;28;20045;-63
2023/12/17 02:16:46;;;;;;;10.57;5.57;;;;;;;-1.33;100.00;99571.75;5043567;28;20037;-63
2023/12/17 02:19:12;;;;;;;9.43;5.43;;;;;;;-1.33;100.00;99568.28;5037745;28;20045;-63
2023/12/17 02:21:39;;;;;;;9.07;5.07;;;;;;;-1.32;100.00;99567.28;5041777;28;20037;-63
2023/12/17 02:24:05;;;;;;;10.77;6.10;;;;;;;-1.40;100.00;99567.88;5047925;28;20044;-63
2023/12/17 02:26:34;;;;;;;11.05;5.75;;;;;;;-1.48;100.00;99570.28;5048676;28;20088;-63
2023/12/17 02:29:01;;;;;;;10.05;5.78;;;;;;;-1.53;100.00;99573.31;5042602;28;20033;-63
2023/12/17 02:31:27;;;;;;;11.10;6.25;;;;;;;-1.54;100.00;99582.25;5048300;28;20128;-63
2023/12/17 02:33:54;;;;;;;8.43;5.45;;;;;;;-1.55;100.00;99590.34;5045010;28;20040;-63
2023/12/17 02:36:21;;;;;;;8.98;5.40;;;;;;;-1.57;100.00;99575.38;5044776;28;20044;-63
2023/12/17 02:38:47;;;;;;;8.77;5.40;;;;;;;-1.50;100.00;99583.72;5054999;28;20060;-63
2023/12/17 02:41:14;;;;;;;10.95;5.80;;;;;;;-1.48;100.00;99589.75;5046759;28;20098;-63
2023/12/17 02:43:40;;;;;;;10.45;5.70;;;;;;;-1.55;100.00;99588.53;5044972;28;20036;-63
2023/12/17 02:46:07;;;;;;;8.10;5.03;;;;;;;-1.48;100.00;99570.28;5053201;28;20041;-63
2023/12/17 02:48:33;;;;;;;9.70;5.38;;;;;;;-1.40;100.00;99567.88;5052395;28;20036;-63
2023/12/17 02:51:00;;;;;;;8.27;4.93;;;;;;;-1.39;100.00;99558.97;5051554;28;20052;-63
2023/12/17 02:53:27;;;;;;;10.55;5.43;;;;;;;-1.38;100.00;99558.00;5049038;28;20124;-63
2023/12/17 02:55:54;;;;;;;9.35;4.85;;;;;;;-1.47;100.00;99548.91;5041251;28;20156;-63
2023/12/17 02:58:20;;;;;;;9.10;5.13;;;;;;;-1.50;100.00;99549.19;5049699;28;20094;-63
2023/12/17 03:00:47;;;;;;;8.52;4.82;;;;;;;-1.52;100.00;99547.59;5050698;28;20115;-63
2023/12/17 03:03:13;;;;;;;10.48;4.97;;;;;;;-1.52;100.00;99548.44;5049982;28;20828;-63
2023/12/17 03:05:40;;;;;;;9.23;5.43;;;;;;;-1.61;100.00;99555.31;5053015;28;20032;-63
2023/12/17 03:08:07;;;;;;;9.57;4.75;;;;;;;-1.65;100.00;99558.31;5050206;28;20082;-63
2023/12/17 03:10:34;;;;;;;9.25;5.43;;;;;;;-1.54;100.00;99552.19;5049475;28;20124;-63
2023/12/17 03:13:00;;;;;;;9.93;5.68;;;;;;;-1.49;100.00;99534.91;5054950;28;20192;-63
2023/12/17 03:15:27;;;;;;;12.75;5.65;;;;;;;-1.46;100.00;99531.16;5050856;28;20033;-63
2023/12/17 03:17:53;;;;;;;13.30;6.00;;;;;;;-1.52;100.00;99531.66;5043093;28;20033;-63
2023/12/17 03:20:20;;;;;;;10.98;5.93;;;;;;;-1.65;100.00;99537.94;5054544;28;20040;-63
2023/12/17 03:22:47;;;;;;;9.00;5.15;;;;;;;-1.72;100.00;99537.56;5040297;28;20547;-63
2023/12/17 03:25:13;;;;;;;11.65;6.47;;;;;;;-1.72;100.00;99531.41;5049664;28;20078;-63
2023/12/17 03:27:44;;;;;;;10.32;5.97;;;;;;;-1.72;100.00;99524.28;5053965;28;20036;-63
2023/12/17 03:30:11;;;;;;;11.15;6.95;;;;;;;-1.76;100.00;99514.00;5049582;28;20044;-63
2023/12/17 03:32:38;;;;;;;9.82;5.45;;;;;;;-1.72;100.00;99516.31;5046988;28;20070;-63
2023/12/17 03:35:05;;;;;;;9.95;5.13;;;;;;;-1.59;100.00;99510.00;5051235;28;20037;-63
2023/12/17 03:37:32;;;;;;;9.18;5.63;;;;;;;-1.51;100.00;99499.63;5049657;28;20078;-63
2023/12/17 03:39:58;;;;;;;8.55;5.50;;;;;;;-1.51;100.00;99486.34;5048902;28;20060;-63
2023/12/17 03:42:25;;;;;;;10.25;5.85;;;;;;;-1.54;100.00;99480.44;5047105;28;20040;-63
2023/12/17 03:44:51;;;;;;;11.43;5.82;;;;;;;-1.67;100.00;99476.09;5049791;28;20500;-63
2023/12/17 03:47:18;;;;;;;11.05;5.93;;;;;;;-1.72;100.00;99489.75;5051977;28;20074;-63
2023/12/17 03:49:45;;;;;;;10.40;6.47;;;;;;;-1.75;100.00;99486.47;5050322;28;20048;-63
2023/12/17 03:52:11;;;;;;;9.88;5.65;;;;;;;-1.72;100.00;99483.59;5044601;28;20227;-63
2023/12/17 03:54:38;;;;;;;8.70;5.07;;;;;;;-1.70;100.00;99492.25;5041912;28;20037;-63
2023/12/17 03:57:05;;;;;;;11.75;5.68;;;;;;;-1.72;100.00;99499.53;5050758;28;20116;-63
2023/12/17 03:59:31;;;;;;;11.38;5.93;;;;;;;-1.76;100.00;99495.41;5055532;28;20056;-63
2023/12/17 04:02:01;;;;;;;8.75;5.88;;;;;;;-1.81;100.00;99501.06;5054748;28;20531;-63
2023/12/17 04:04:28;;;;;;;11.57;6.13;;;;;;;-1.86;100.00;99496.13;5056525;28;20045;-63
2023/12/17 04:06:55;;;;;;;9.73;5.88;;;;;;;-1.93;100.00;99500.22;5041375;28;20055;-63
2023/12/17 04:09:21;;;;;;;11.20;5.60;;;;;;;-1.95;100.00;99507.47;5046741;28;20554;-63
2023/12/17 04:11:48;;;;;;;8.70;5.72;;;;;;;-1.97;100.00;99504.94;5045169;28;20412;-63
2023/12/17 04:14:15;;;;;;;8.35;5.15;;;;;;;-1.98;100.00;99507.69;5051968;28;20037;-63
2023/12/17 04:16:42;;;;;;;10.23;5.13;;;;;;;-1.95;100.00;99515.44;5044038;28;20076;-63
2023/12/17 04:19:09;;;;;;;13.25;5.45;;;;;;;-1.99;100.00;99503.38;5046679;28;20128;-63
2023/12/17 04:21:36;;;;;;;9.82;5.22;;;;;;;-2.01;100.00;99498.16;5044302;28;20037;-63
2023/12/17 04:24:03;;;;;;;14.88;5.35;;;;;;;-2.02;100.00;99493.81;5051264;28;20404;-63
2023/12/17 04:26:29;;;;;;;11.68;5.35;;;;;;;-2.03;100.00;99497.44;5046319;28;20060;-63
2023/12/17 04:28:56;;;;;;;12.57;5.32;;;;;;;-2.02;100.00;99498.28;5048260;28;21041;-64
2023/12/17 04:31:23;;;;;;;9.43;5.30;;;;;;;-1.86;100.00;99509.41;5045931;28;20119;-64
2023/12/17 04:33:50;;;;;;;10.18;5.88;;;;;;;-1.84;100.00;99527.88;5051698;28;20048;-64
2023/12/17 04:36:17;;;;;;;7.88;4.90;;;;;;;-1.87;100.00;99514.84;5041076;28;20439;-64
2023/12/17 04:38:46;;;;;;;11.90;5.43;;;;;;;-1.99;100.00;99504.19;5052412;28;20124;-64
2023/12/17 04:41:14;;;;;;;8.98;5.32;;;;;;;-2.12;100.00;99487.53;5049445;28;20411;-64
2023/12/17 04:43:40;;;;;;;8.57;4.80;;;;;;;-2.10;100.00;99496.22;5058046;28;20114;-64
2023/12/17 04:46:07;;;;;;;9.00;5.53;;;;;;;-2.04;100.00;99501.06;5053169;28;20045;-64
2023/12/17 04:48:33;;;;;;;9.80;5.88;;;;;;;-1.96;100.00;99508.41;5057405;28;20036;-64
2023/12/17 04:51:00;;;;;;;9.23;4.75;;;;;;;-1.93;100.00;99508.19;5052422;28;20044;-64
2023/12/17 04:53:27;;;;;;;9.25;4.75;;;;;;;-1.82;100.00;99499.38;5049208;28;20041;-63
2023/12/17 04:55:53;;;;;;;8.95;5.22;;;;;;;-1.62;100.00;99510.28;5051964;28;20045;-63
2023/12/17 04:58:20;;;;;;;8.68;5.10;;;;;;;-1.60;100.00;99516.31;5053659;28;20380;-64
2023/12/17 05:00:47;;;;;;;8.68;4.97;;;;;;;-1.51;100.00;99509.44;5054337;28;20210;-64
2023/12/17 05:03:13;;;;;;;10.25;5.68;;;;;;;-1.35;100.00;99491.31;5054180;28;20043;-63
2023/12/17 05:05:40;;;;;;;8.48;5.10;;;;;;;-1.17;100.00;99488.13;5050710;28;20097;-63
2023/12/17 05:08:07;;;;;;;10.95;5.60;;;;;;;-1.15;100.00;99475.56;5049546;28;20488;-63
2023/12/17 05:10:33;;;;;;;8.10;5.15;;;;;;;-0.98;100.00;99474.19;5049937;28;20129;-63
2023/12/17 05:13:00;;;;;;;10.23;5.50;;;;;;;-0.88;100.00;99473.44;5057817;28;20049;-63
2023/12/17 05:15:26;;;;;;;7.60;5.03;;;;;;;-0.99;100.00;99458.34;5054475;28;20097;-64
2023/12/17 05:17:53;;;;;;;8.45;5.00;;;;;;;-1.00;100.00;99449.53;5065140;28;20256;-63
2023/12/17 05:20:20;;;;;;;7.38;4.10;;;;;;;-0.94;100.00;99449.03;5048226;28;20059;-63
2023/12/17 05:22:46;;;;;;;8.65;5.10;;;;;;;-0.94;100.00;99435.75;5048698;28;20048;-64
2023/12/17 05:25:13;;;;;;;7.85;5.03;;;;;;;-0.95;100.00;99436.69;5061390;28;20037;-63
2023/12/17 05:27:42;;;;;;;9.68;5.20;;;;;;;-0.84;100.00;99433.16;5059250;28;20135;-63
2023/12/17 05:30:10;;;;;;;8.52;4.60;;;;;;;-0.75;100.00;99431.53;5068636;28;20033;-63
2023/12/17 05:32:37;;;;;;;9.73;5.32;;;;;;;-0.60;100.00;99418.78;5057964;28;20132;-63
2023/12/17 05:35:05;;;;;;;8.45;5.30;;;;;;;-0.57;100.00;99417.66;5056111;28;20051;-64
2023/12/17 05:37:31;;;;;;;6.50;4.15;;;;;;;-0.56;100.00;99411.38;5057065;28;20128;-63
2023/12/17 05:39:58;;;;;;;9.15;4.88;;;;;;;-0.55;100.00;99424.53;5053768;28;20131;-63
2023/12/17 05:42:25;;;;;;;7.57;4.72;;;;;;;-0.48;100.00;99424.88;5053942;28;20045;-63
2023/12/17 05:44:51;;;;;;;9.38;5.28;;;;;;;-0.38;100.00;99424.09;5054855;28;20101;-63
2023/12/17 05:47:18;;;;;;;9.25;4.53;;;;;;;-0.43;100.00;99420.03;5053938;28;20075;-64
2023/12/17 05:49:45;;;;;;;8.82;4.60;;;;;;;-0.49;100.00;99425.00;5056554;28;20044;-63
2023/12/17 05:52:12;;;;;;;8.43;4.30;;;;;;;-0.44;100.00;99425.47;5054165;28;20052;-64
2023/12/17 05:54:38;;;;;;;10.80;4.63;;;;;;;-0.42;100.00;99428.84;5062666;28;20043;-63
2023/12/17 05:57:05;;;;;;;6.35;4.32;;;;;;;-0.40;100.00;99418.91;5048454;28;20072;-64
2023/12/17 05:59:32;;;;;;;8.55;4.72;;;;;;;-0.37;100.00;99423.13;5063028;28;20071;-63
2023/12/17 06:01:59;;;;;;;7.35;4.30;;;;;;;-0.44;100.00;99428.97;5052761;28;20041;-64
2023/12/17 06:04:26;;;;;;;6.47;3.85;;;;;;;-0.37;100.00;99428.44;5046138;28;20265;-64
2023/12/17 06:06:55;;;;;;;9.32;4.13;;;;;;;-0.35;100.00;99447.78;5045229;28;20051;-63
2023/12/17 06:09:25;;;;;;;9.43;5.57;;;;;;;-0.40;100.00;99451.69;5050756;28;20040;-64
2023/12/17 06:11:52;;;;;;;11.68;5.32;;;;;;;-0.44;100.00;99447.59;5046665;28;20049;-64
2023/12/17 06:14:19;;;;;;;10.48;4.05;;;;;;;-0.54;100.00;99452.00;5053836;28;20053;-64
2023/12/17 06:16:46;;;;;;;8.55;4.68;;;;;;;-0.56;100.00;99456.59;5041742;28;20045;-64
2023/12/17 06:19:13;;;;;;;9.10;4.88;;;;;;;-0.64;100.00;99461.72;5045133;28;20515;-63
2023/12/17 06:21:40;;;;;;;10.77;4.80;;;;;;;-0.74;100.00;99462.50;5042669;28;20076;-63
2023/12/17 06:24:07;;;;;;;8.45;4.57;;;;;;;-0.80;100.00;99463.00;5038294;28;20526;-64
2023/12/17 06:26:37;;;;;;;6.07;4.03;;;;;;;-0.95;100.00;99463.28;5051088;28;20716;-64
2023/12/17 06:29:04;;;;;;;8.63;4.72;;;;;;;-1.10;100.00;99468.03;5052978;28;20047;-64
2023/12/17 06:31:31;;;;;;;7.18;4.20;;;;;;;-1.23;100.00;99476.19;5046331;28;20040;-64
2023/12/17 06:33:57;;;;;;;9.18;5.18;;;;;;;-1.32;100.00;99472.44;5044799;28;20041;-61
2023/12/17 06:36:24;;;;;;;6.53;3.55;;;;;;;-1.35;100.00;99475.34;5052238;28;20048;-62
2023/12/17 06:38:51;;;;;;;8.73;4.43;;;;;;;-1.27;100.00;99473.88;5045315;28;20112;-61
2023/12/17 06:41:18;;;;;;;9.05;4.60;;;;;;;-1.23;100.00;99473.53;5054448;28;20102;-62
2023/12/17 06:43:44;;;;;;;9.10;4.72;;;;;;;-1.34;100.00;99471.72;5045612;28;20064;-61
2023/12/17 06:46:17;;;;;;;7.28;4.53;;;;;;;-1.37;100.00;99471.97;5043226;28;20392;-62
2023/12/17 06:48:47;;;;;;;8.55;4.78;;;;;;;-1.35;100.00;99466.53;5045660;28;20052;-61
2023/12/17 06:51:14;;;;;;;9.10;5.15;;;;;;;-1.39;100.00;99478.38;5043975;28;20080;-62
2023/12/17 06:53:40;;;;;;;9.65;5.50;;;;;;;-1.32;100.00;99482.25;5045450;28;20633;-62
2023/12/17 06:56:07;;;;;;;9.80;5.35;;;;;;;-1.47;100.00;99473.69;5048696;28;20041;-62
2023/12/17 06:58:36;;;;;;;11.32;5.70;;;;;;;-1.74;100.00;99458.94;5055013;28;20051;-58
2023/12/17 07:01:03;;;;;;;10.23;5.18;;;;;;;-1.77;100.00;99470.66;5055360;28;20051;-57
2023/12/17 07:03:30;;;;;;;8.93;5.53;;;;;;;-1.66;100.00;99479.59;5050978;28;20049;-55
2023/12/17 07:05:58;;;;;;;10.55;6.25;;;;;;;-1.61;100.00;99491.56;5053405;28;20458;-56
2023/12/17 07:08:25;;;;;;;11.05;6.75;;;;;;;-1.51;100.00;99485.53;5044907;28;20444;-58
2023/12/17 07:10:52;;;;;;;11.27;5.88;;;;;;;-1.51;100.00;99485.53;5044189;28;20127;-62
2023/12/17 07:13:18;;;;;;;10.77;5.38;;;;;;;-1.62;100.00;99471.25;5048343;28;20045;-62
2023/12/17 07:15:45;;;;;;;10.65;6.50;;;;;;;-1.51;100.00;99483.69;5036059;28;20053;-62
2023/12/17 07:18:12;;;;;;;10.75;5.95;;;;;;;-1.60;100.00;99479.97;5039376;28;20531;-62
2023/12/17 07:20:39;;;;;;;9.43;6.10;;;;;;;-1.64;100.00;99482.97;5046531;28;20036;-61
2023/12/17 07:23:05;;;;;;;10.02;5.60;;;;;;;-1.61;100.00;99475.63;5043147;28;20058;-62
2023/12/17 07:25:32;;;;;;;10.63;5.60;;;;;;;-1.59;100.00;99478.13;5044013;28;20045;-64
2023/12/17 07:27:59;;;;;;;11.57;6.30;;;;;;;-1.51;100.00;99483.69;5053438;28;20043;-63
2023/12/17 07:30:26;;;;;;;10.95;6.15;;;;;;;-1.59;100.00;99479.00;5051198;28;20048;-63
2023/12/17 07:32:53;;;;;;;8.80;5.25;;;;;;;-1.55;100.00;99468.94;5039445;28;20063;-63
2023/12/17 07:35:19;;;;;;;9.05;6.13;;;;;;;-1.50;100.00;99466.81;5041199;28;20048;-63
2023/12/17 07:37:46;;;;;;;11.25;6.88;;;;;;;-1.48;100.00;99469.31;5043129;28;20076;-63
2023/12/17 07:40:13;;;;;;;10.98;6.57;;;;;;;-1.46;100.00;99460.28;5046600;28;20033;-63
2023/12/17 07:42:41;;;;;;;11.27;5.93;;;;;;;-1.49;100.00;99460.50;5056368;28;20048;-63
2023/12/17 07:45:09;;;;;;;12.52;6.70;;;;;;;-1.50;100.00;99461.50;5048752;28;20616;-63
2023/12/17 07:47:35;;;;;;;11.68;6.85;;;;;;;-1.44;100.00;99465.44;5044294;28;20037;-63
2023/12/17 07:50:02;;;;;;;12.13;6.97;;;;;;;-1.36;100.00;99464.84;5050906;28;20609;-62
2023/12/17 07:52:29;;;;;;;10.18;6.30;;;;;;;-1.34;100.00;99463.75;5042515;28;20123;-63
2023/12/17 07:54:56;;;;;;;10.60;6.85;;;;;;;-1.30;100.00;99467.00;5043420;28;20136;-62
2023/12/17 07:57:22;;;;;;;9.93;6.95;;;;;;;-1.31;100.00;99466.16;5053808;28;20116;-62
2023/12/17 07:59:51;;;;;;;11.55;6.03;;;;;;;-1.33;100.00;99462.78;5039036;28;20040;-63
2023/12/17 08:02:18;;;;;;;10.75;6.45;;;;;;;-1.28;100.00;99462.41;5057256;28;20037;-62
2023/12/17 08:04:45;;;;;;;9.88;5.95;;;;;;;-1.19;100.00;99464.31;5045973;28;20053;-62
2023/12/17 08:07:13;;;;;;;10.07;5.82;;;;;;;-1.13;100.00;99463.00;5042425;28;20087;-62
2023/12/17 08:09:40;;;;;;;15.98;7.40;;;;;;;-1.08;100.00;99457.28;5040088;28;20041;-62
2023/12/17 08:12:07;;;;;;;14.23;6.35;;;;;;;-1.06;100.00;99450.03;5044005;28;20586;-62
2023/12/17 08:14:34;;;;;;;13.23;6.75;;;;;;;-1.03;100.00;99451.59;5046705;28;20037;-62
2023/12/17 08:17:01;;;;;;;12.70;6.80;;;;;;;-0.99;100.00;99453.03;5046465;28;20047;-62
2023/12/17 08:19:28;;;;;;;12.40;7.25;;;;;;;-1.00;100.00;99460.16;5052603;28;20052;-63
2023/12/17 08:21:57;;;;;;;12.85;6.75;;;;;;;-0.97;100.00;99464.38;5049083;28;20066;-63
2023/12/17 08:24:24;;;;;;;14.63;7.40;;;;;;;-0.97;100.00;99457.25;5039760;28;20056;-63
2023/12/17 08:26:54;;;;;;;9.60;6.65;;;;;;;-0.96;100.00;99453.63;5052344;28;20045;-62
2023/12/17 08:29:21;;;;;;;13.20;6.90;;;;;;;-0.92;100.00;99452.41;5045034;28;20389;-63
2023/12/17 08:31:48;;;;;;;11.13;6.50;;;;;;;-0.88;100.00;99462.78;5041555;28;20052;-63
2023/12/17 08:34:14;;;;;;;12.27;6.85;;;;;;;-0.89;100.00;99459.28;5041755;28;20584;-63
2023/12/17 08:36:41;;;;;;;11.50;7.53;;;;;;;-0.87;100.00;99462.66;5043330;28;20052;-63
2023/12/17 08:39:11;;;;;;;10.73;6.70;;;;;;;-0.80;100.00;99455.84;5040977;28;20037;-63
2023/12/17 08:41:38;;;;;;;11.80;6.47;;;;;;;-0.70;100.00;99453.28;5038265;28;20724;-63
2023/12/17 08:44:05;;;;;;;9.88;6.38;;;;;;;-0.60;100.00;99457.81;5047952;28;20099;-63
2023/12/17 08:46:32;;;;;;;10.60;6.50;;;;;;;-0.51;100.00;99458.88;5050627;28;20043;-63
2023/12/17 08:48:59;;;;;;;11.50;6.43;;;;;;;-0.47;100.00;99461.19;5041075;28;20041;-63
2023/12/17 08:51:26;;;;;;;12.50;6.32;;;;;;;-0.39;100.00;99460.53;5039155;28;20146;-63
2023/12/17 08:53:53;;;;;;;11.13;5.78;;;;;;;-0.35;100.00;99451.31;5050020;28;20051;-63
2023/12/17 08:56:20;;;;;;;8.80;5.60;;;;;;;-0.35;100.00;99445.97;5048729;28;20075;-63
2023/12/17 08:58:48;;;;;;;9.85;6.35;;;;;;;-0.25;100.00;99450.53;5045682;28;20051;-63
2023/12/17 09:01:17;;;;;;;9.10;5.43;;;;;;;-0.11;100.00;99447.50;5041153;28;20041;-63
2023/12/17 09:03:44;;;;;;;11.98;5.93;;;;;;;-0.04;100.00;99450.53;5041007;28;20037;-63
2023/12/17 09:06:11;;;;;;;10.80;5.85;;;;;;;0.06;100.00;99447.88;5048750;28;20037;-63
2023/12/17 09:08:38;;;;;;;10.55;6.15;;;;;;;0.11;100.00;99435.84;5049221;28;20123;-63
2023/12/17 09:11:05;;;;;;;10.90;6.25;;;;;;;0.21;100.00;99440.38;5045338;28;20056;-63
2023/12/17 09:13:32;;;;;;;10.68;6.35;;;;;;;0.30;100.00;99446.75;5048126;28;20056;-63
2023/12/17 09:15:59;;;;;;;11.13;5.93;;;;;;;0.38;100.00;99453.06;5050116;28;20159;-63
2023/12/17 09:18:26;;;;;;;11.80;6.32;;;;;;;0.45;100.00;99447.22;5051497;28;20121;-63
2023/12/17 09:20:53;;;;;;;9.93;5.40;;;;;;;0.52;100.00;99437.72;5046530;28;20041;-63
2023/12/17 09:23:19;;;;;;;8.15;5.22;;;;;;;0.57;100.00;99445.28;5048344;28;20139;-63
2023/12/17 09:25:46;;;;;;;6.53;4.03;;;;;;;0.51;100.00;99441.31;5045590;28;20053;-63
2023/12/17 09:28:13;;;;;;;8.02;4.75;;;;;;;0.50;100.00;99434.31;5053018;28;20135;-63
2023/12/17 09:30:39;;;;;;;9.65;4.80;;;;;;;0.62;100.00;99443.91;5038821;28;20087;-63
2023/12/17 09:33:06;;;;;;;7.13;4.80;;;;;;;0.76;100.00;99439.16;5048880;28;20308;-63
2023/12/17 09:35:36;;;;;;;8.32;4.88;;;;;;;0.92;100.00;99438.59;5049523;28;20110;-63
2023/12/17 09:38:04;;;;;;;8.20;4.50;;;;;;;1.09;100.00;99441.56;5041619;28;20063;-63
2023/12/17 09:40:38;;;;;;;8.48;4.47;;;;;;;1.32;100.00;99434.13;5046615;28;20040;-63
2023/12/17 09:43:04;;;;;;;7.20;4.00;;;;;;;1.54;100.00;99440.16;5052316;28;20044;-63
2023/12/17 09:45:31;;;;;;;7.90;3.97;;;;;;;1.72;100.00;99439.44;5054517;28;20047;-63
2023/12/17 09:47:58;;;;;;;6.55;3.30;;;;;;;1.82;100.00;99437.59;5049133;28;20051;-63
2023/12/17 09:50:27;;;;;;;7.25;3.92;;;;;;;1.90;100.00;99429.72;5049951;28;20598;-63
2023/12/17 09:52:54;;;;;;;5.93;3.17;;;;;;;1.97;100.00;99429.97;5053930;28;20037;-63
2023/12/17 09:55:22;;;;;;;5.72;3.38;;;;;;;2.07;100.00;99435.28;5053541;28;20040;-62
2023/12/17 09:57:48;;;;;;;7.32;3.28;;;;;;;2.15;100.00;99426.53;5053135;28;20573;-62
2023/12/17 10:00:16;;;;;;;5.18;3.08;;;;;;;2.24;100.00;99436.34;5046138;28;20474;-63
2023/12/17 10:02:44;;;;;;;7.05;3.45;;;;;;;2.35;100.00;99437.97;5053413;28;20066;-63
2023/12/17 10:05:10;;;;;;;8.05;3.70;;;;;;;2.40;100.00;99438.38;5048210;28;20041;-63
2023/12/17 10:07:37;;;;;;;6.90;3.67;;;;;;;2.39;100.00;99433.22;5047421;28;20060;-63
2023/12/17 10:10:06;;;;;;;5.95;3.10;;;;;;;2.43;100.00;99432.75;5055793;28;20075;-63
2023/12/17 10:12:33;;;;;;;8.00;3.38;;;;;;;2.49;100.00;99430.47;5057514;28;20040;-62
2023/12/17 10:15:00;;;;;;;7.20;3.63;;;;;;;2.54;100.00;99423.69;5046535;28;20041;-63
2023/12/17 10:17:26;;;;;;;6.60;3.92;;;;;;;2.59;100.00;99416.03;5054692;28;20041;-63
2023/12/17 10:19:53;;;;;;;7.47;4.25;;;;;;;2.63;100.00;99408.59;5052830;28;20041;-63
2023/12/17 10:22:20;;;;;;;12.27;5.63;;;;;;;2.66;100.00;99404.75;5048317;28;20044;-63
2023/12/17 10:24:48;;;;;;;14.27;7.93;;;;;;;2.73;100.00;99395.97;5053588;28;20060;-63
2023/12/17 10:27:19;;;;;;;16.63;8.75;;;;;;;2.84;100.00;99391.41;5044770;28;20041;-63
2023/12/17 10:29:51;;;;;;;15.55;8.43;;;;;;;2.93;100.00;99393.19;5043989;28;20484;-62
2023/12/17 10:32:23;;;;;;;14.35;7.45;;;;;;;2.98;100.00;99376.63;5050447;28;20578;-60
2023/12/17 10:34:51;;;;;;;13.65;7.10;;;;;;;3.06;100.00;99384.75;5045767;28;20040;-62
2023/12/17 10:37:20;;;;;;;9.55;5.80;;;;;;;3.10;100.00;99386.13;5047494;28;20045;-62
2023/12/17 10:39:51;;;;;;;8.55;4.88;;;;;;;3.18;100.00;99382.69;5049422;28;20139;-61
2023/12/17 10:42:20;;;;;;;8.73;5.13;;;;;;;3.28;100.00;99377.22;5046818;28;20049;-61
2023/12/17 10:44:49;;;;;;;7.40;4.60;;;;;;;3.40;100.00;99380.53;5055982;28;20073;-61
2023/12/17 10:47:21;;;;;;;7.55;3.92;;;;;;;3.54;100.00;99380.97;5054967;28;20132;-62
2023/12/17 10:49:48;;;;;;;16.80;5.95;;;;;;;3.59;100.00;99376.81;5044530;28;20052;-62
2023/12/17 10:52:15;;;;;;;6.80;4.28;;;;;;;3.65;100.00;99370.00;5046589;28;20179;-61
2023/12/17 10:54:42;;;;;;;7.20;4.10;;;;;;;3.72;100.00;99367.53;5045137;28;20049;-61
2023/12/17 10:57:13;;;;;;;7.35;3.30;;;;;;;3.76;100.00;99367.03;5054285;28;20289;-62
2023/12/17 10:59:44;;;;;;;5.55;3.38;;;;;;;3.82;100.00;99365.56;5049580;28;20510;-62
2023/12/17 11:02:14;;;;;;;5.97;3.45;;;;;;;3.88;100.00;99361.41;5044538;28;20048;-62
2023/12/17 11:04:45;;;;;;;5.43;2.92;;;;;;;3.91;100.00;99363.78;5041862;28;20044;-62
2023/12/17 11:07:21;;;;;;;6.95;2.95;;;;;;;3.97;100.00;99357.75;5056101;28;20036;-62
2023/12/17 11:10:06;;;;;;;5.85;2.78;;;;;;;4.00;100.00;99349.41;5047083;28;20052;-62
2023/12/17 11:12:34;;;;;;;5.90;2.88;;;;;;;4.07;100.00;99351.44;5042080;28;20124;-61
2023/12/17 11:15:01;;;;;;;9.88;3.05;;;;;;;4.06;100.00;99345.25;5044971;28;20048;-62
2023/12/17 11:17:28;;;;;;;4.97;2.53;;;;;;;4.06;100.00;99339.03;5043984;28;20052;-61
2023/12/17 11:19:59;;;;;;;6.88;2.92;;;;;;;4.12;100.00;99344.59;5055163;28;20067;-60
2023/12/17 11:22:27;;;;;;;6.30;3.25;;;;;;;4.16;100.00;99345.97;5043370;28;20052;-61
2023/12/17 11:24:55;;;;;;;7.18;3.05;;;;;;;4.22;100.00;99340.94;5045379;28;20072;-61